Time;durP1;ratioP1;P1;durP2;ratioP2;P2;SDS_P1;SDS_P2;PMS_P1;PMS_P2;Temp;Humidity;BMP_temperature;BMP_pressure;BME280_temperature;BME280_humidity;BME280_pressure;Samples;Min_cycle;Max_cycle;Signal;HPM_P1;HPM_P2
2021/07/05 00:01:22;;;;;;;1.60;1.40;;;15.70;99.90;;;;;;5047959;28;20462;-67
2021/07/05 00:03:48;;;;;;;3.97;1.60;;;15.80;99.90;;;;;;5041695;28;20902;-67
2021/07/05 00:06:15;;;;;;;1.43;1.33;;;15.80;99.90;;;;;;5031663;28;20470;-67
2021/07/05 00:08:42;;;;;;;2.27;1.43;;;15.70;99.90;;;;;;5031905;28;20888;-67
2021/07/05 00:11:09;;;;;;;1.40;1.30;;;15.80;99.90;;;;;;5030137;28;20472;-67
2021/07/05 00:13:35;;;;;;;1.93;1.20;;;15.80;99.90;;;;;;5031077;28;20472;-67
2021/07/05 00:16:03;;;;;;;1.47;1.37;;;15.80;99.90;;;;;;5031009;28;20487;-67
2021/07/05 00:18:31;;;;;;;1.63;1.30;;;15.80;99.90;;;;;;5031307;28;20460;-67
2021/07/05 00:20:57;;;;;;;4.70;1.43;;;15.80;99.90;;;;;;5030485;28;20464;-67
2021/07/05 00:23:24;;;;;;;1.30;1.20;;;15.80;99.90;;;;;;5030773;28;20484;-67
2021/07/05 00:25:51;;;;;;;3.67;1.40;;;15.80;99.90;;;;;;5031559;28;20472;-67
2021/07/05 00:28:18;;;;;;;1.37;1.27;;;15.80;99.90;;;;;;5031419;28;20471;-67
2021/07/05 00:30:45;;;;;;;2.80;1.50;;;15.80;99.90;;;;;;5031108;28;20467;-67
2021/07/05 00:33:12;;;;;;;2.33;1.90;;;15.70;99.90;;;;;;5030501;28;20491;-67
2021/07/05 00:35:40;;;;;;;3.17;1.60;;;15.70;99.90;;;;;;5031579;28;21005;-67
2021/07/05 00:38:07;;;;;;;1.47;1.30;;;15.80;99.90;;;;;;5030842;28;20475;-67
2021/07/05 00:40:34;;;;;;;1.63;1.50;;;15.80;99.90;;;;;;5030681;28;20466;-67
2021/07/05 00:43:01;;;;;;;1.50;1.27;;;15.80;99.90;;;;;;5030798;28;20480;-67
2021/07/05 00:45:29;;;;;;;2.80;1.60;;;15.90;99.90;;;;;;5030525;28;20480;-67
2021/07/05 00:47:56;;;;;;;1.30;1.20;;;15.90;99.90;;;;;;5030607;28;20464;-67
2021/07/05 00:50:27;;;;;;;1.73;1.50;;;15.90;99.90;;;;;;5030036;28;20962;-67
2021/07/05 00:52:57;;;;;;;2.40;1.33;;;15.90;99.90;;;;;;5030743;28;20460;-67
2021/07/05 00:55:26;;;;;;;1.67;1.30;;;15.90;99.90;;;;;;5030245;28;20487;-67
2021/07/05 00:57:53;;;;;;;1.40;1.30;;;16.00;99.90;;;;;;5030465;28;20543;-67
2021/07/05 01:00:23;;;;;;;1.50;1.40;;;16.00;99.90;;;;;;5030155;28;20855;-67
2021/07/05 01:02:52;;;;;;;1.40;1.17;;;15.90;99.90;;;;;;5029895;28;20460;-67
2021/07/05 01:05:19;;;;;;;1.70;1.30;;;15.90;99.90;;;;;;5030249;28;20562;-67
2021/07/05 01:07:47;;;;;;;1.60;1.50;;;15.90;99.90;;;;;;5029873;28;20464;-67
2021/07/05 01:10:17;;;;;;;1.30;1.20;;;16.00;99.90;;;;;;5029674;28;20975;-67
2021/07/05 01:12:44;;;;;;;2.40;1.50;;;15.90;99.90;;;;;;5029797;28;20468;-67
2021/07/05 01:15:14;;;;;;;1.37;1.27;;;15.90;99.90;;;;;;5029902;28;20468;-67
2021/07/05 01:17:42;;;;;;;2.80;1.50;;;15.90;99.90;;;;;;5029859;28;20460;-67
2021/07/05 01:20:13;;;;;;;2.87;1.50;;;15.80;99.90;;;;;;5028987;28;20460;-67
2021/07/05 01:22:41;;;;;;;1.20;1.10;;;15.90;99.90;;;;;;5029643;28;20472;-67
2021/07/05 01:25:15;;;;;;;1.90;1.20;;;15.90;99.90;;;;;;5029352;28;20484;-67
2021/07/05 01:27:42;;;;;;;1.50;1.37;;;15.90;99.90;;;;;;5030050;28;20460;-67
2021/07/05 01:30:11;;;;;;;1.47;1.30;;;15.90;99.90;;;;;;5028872;28;20467;-66
2021/07/05 01:32:38;;;;;;;1.37;1.27;;;15.90;99.90;;;;;;5029663;28;20464;-67
2021/07/05 01:35:07;;;;;;;1.80;1.30;;;15.80;99.90;;;;;;5029364;28;20955;-67
2021/07/05 01:37:34;;;;;;;2.43;1.50;;;15.80;99.90;;;;;;5030139;28;20471;-67
2021/07/05 01:40:04;;;;;;;1.50;1.30;;;15.80;99.90;;;;;;5028966;28;20464;-67
2021/07/05 01:42:31;;;;;;;1.40;1.30;;;15.80;99.90;;;;;;5029272;28;20472;-67
2021/07/05 01:44:57;;;;;;;2.73;1.67;;;15.90;99.90;;;;;;5029287;28;20986;-67
2021/07/05 01:47:24;;;;;;;1.87;1.50;;;15.80;99.90;;;;;;5029137;28;20460;-67
2021/07/05 01:49:51;;;;;;;2.33;1.60;;;15.80;99.90;;;;;;5028632;28;20467;-67
2021/07/05 01:52:18;;;;;;;1.60;1.50;;;15.80;99.90;;;;;;5029274;28;20464;-67
2021/07/05 01:54:44;;;;;;;2.97;1.73;;;15.90;99.90;;;;;;5029442;28;20940;-66
2021/07/05 01:57:25;;;;;;;1.40;1.30;;;15.80;99.90;;;;;;5029177;28;20748;-66
2021/07/05 01:59:54;;;;;;;2.20;1.50;;;15.80;99.90;;;;;;5028485;28;20463;-67
2021/07/05 02:02:20;;;;;;;2.17;1.60;;;15.80;99.90;;;;;;5029179;28;20468;-67
2021/07/05 02:04:47;;;;;;;2.80;1.80;;;15.90;99.90;;;;;;5028814;28;20536;-67
2021/07/05 02:07:15;;;;;;;1.80;1.60;;;15.90;99.90;;;;;;5028986;28;20498;-67
2021/07/05 02:09:42;;;;;;;1.40;1.30;;;15.90;99.90;;;;;;5028300;28;20562;-67
2021/07/05 02:12:09;;;;;;;1.93;1.30;;;15.80;99.90;;;;;;5028780;28;20508;-66
2021/07/05 02:14:38;;;;;;;1.47;1.37;;;15.80;99.90;;;;;;5028986;28;20480;-66
2021/07/05 02:17:05;;;;;;;2.10;1.90;;;15.70;99.90;;;;;;5028744;28;20456;-67
2021/07/05 02:19:31;;;;;;;2.97;1.90;;;15.70;99.90;;;;;;5028811;28;20460;-67
2021/07/05 02:21:58;;;;;;;1.73;1.40;;;15.70;99.90;;;;;;5028896;28;20570;-67
2021/07/05 02:24:25;;;;;;;1.67;1.57;;;15.70;99.90;;;;;;5028801;28;20494;-66
2021/07/05 02:26:52;;;;;;;1.77;1.67;;;15.70;99.90;;;;;;5028670;28;20460;-67
2021/07/05 02:29:19;;;;;;;2.87;1.97;;;15.70;99.90;;;;;;5028395;28;20464;-66
2021/07/05 02:31:48;;;;;;;3.43;1.60;;;15.60;99.90;;;;;;5028250;28;20959;-67
2021/07/05 02:34:14;;;;;;;4.40;1.70;;;15.60;99.90;;;;;;5030368;28;21006;-67
2021/07/05 02:36:41;;;;;;;1.63;1.43;;;15.60;99.90;;;;;;5033182;28;20475;-66
2021/07/05 02:39:08;;;;;;;3.67;1.60;;;15.50;99.90;;;;;;5032074;28;20499;-66
2021/07/05 02:41:36;;;;;;;1.90;1.67;;;15.60;99.90;;;;;;5032857;28;20464;-66
2021/07/05 02:44:03;;;;;;;3.83;1.63;;;15.60;99.90;;;;;;5032050;28;20480;-67
2021/07/05 02:46:30;;;;;;;2.80;1.43;;;15.60;99.90;;;;;;5032633;28;20491;-67
2021/07/05 02:48:58;;;;;;;1.77;1.20;;;15.60;99.90;;;;;;5032243;28;20842;-66
2021/07/05 02:51:25;;;;;;;1.83;1.67;;;15.60;99.90;;;;;;5032209;28;20467;-67
2021/07/05 02:53:51;;;;;;;2.53;1.90;;;15.70;99.90;;;;;;5032064;28;20488;-67
2021/07/05 02:56:18;;;;;;;2.00;1.83;;;15.70;99.90;;;;;;5032166;28;20471;-67
2021/07/05 02:58:45;;;;;;;1.37;1.27;;;15.60;99.90;;;;;;5032447;28;20476;-67
2021/07/05 03:01:12;;;;;;;1.53;1.43;;;15.70;99.90;;;;;;5031470;28;20796;-67
2021/07/05 03:03:38;;;;;;;3.00;1.67;;;15.70;99.90;;;;;;5032092;28;20546;-66
2021/07/05 03:06:07;;;;;;;1.50;1.40;;;15.60;99.90;;;;;;5031800;28;20484;-67
2021/07/05 03:08:34;;;;;;;2.03;1.50;;;15.70;99.90;;;;;;5032184;28;20562;-67
2021/07/05 03:11:01;;;;;;;1.70;1.60;;;15.70;99.90;;;;;;5031626;28;21150;-66
2021/07/05 03:13:28;;;;;;;2.03;1.77;;;15.70;99.90;;;;;;5031987;28;20700;-67
2021/07/05 03:15:55;;;;;;;4.13;2.07;;;15.70;99.90;;;;;;5031798;28;20456;-67
2021/07/05 03:18:22;;;;;;;2.37;1.70;;;15.70;99.90;;;;;;5032047;28;20535;-67
2021/07/05 03:20:50;;;;;;;1.90;1.77;;;15.70;99.90;;;;;;5031613;28;20472;-67
2021/07/05 03:23:21;;;;;;;2.20;1.70;;;15.70;99.90;;;;;;5031509;28;20487;-67
2021/07/05 03:25:48;;;;;;;2.33;2.00;;;15.70;99.90;;;;;;5048620;28;20486;-67
2021/07/05 03:28:17;;;;;;;2.00;1.80;;;15.80;99.90;;;;;;5052165;28;20460;-67
2021/07/05 03:30:45;;;;;;;1.60;1.50;;;15.70;99.90;;;;;;5051460;28;20941;-67
2021/07/05 03:33:12;;;;;;;2.37;1.73;;;15.80;99.90;;;;;;5051716;28;20483;-67
2021/07/05 03:35:40;;;;;;;3.57;1.80;;;15.70;99.90;;;;;;5051203;28;20558;-67
2021/07/05 03:38:08;;;;;;;1.80;1.70;;;15.80;99.90;;;;;;5050487;28;20459;-67
2021/07/05 03:40:38;;;;;;;1.77;1.67;;;15.70;99.90;;;;;;5050215;28;20459;-67
2021/07/05 03:43:07;;;;;;;4.27;1.80;;;15.80;99.90;;;;;;5051097;28;20665;-67
2021/07/05 03:45:36;;;;;;;1.80;1.40;;;15.80;99.90;;;;;;5051091;28;20532;-67
2021/07/05 03:48:03;;;;;;;3.33;1.67;;;15.80;99.90;;;;;;5051428;28;20835;-67
2021/07/05 03:50:31;;;;;;;1.80;1.70;;;15.80;99.90;;;;;;5051648;28;20463;-67
2021/07/05 03:52:58;;;;;;;1.60;1.50;;;15.80;99.90;;;;;;5051069;28;20470;-67
2021/07/05 03:55:28;;;;;;;3.53;1.50;;;15.80;99.90;;;;;;5051630;28;20467;-67
2021/07/05 03:57:57;;;;;;;2.40;1.77;;;15.80;99.90;;;;;;5051677;28;20459;-67
2021/07/05 04:00:27;;;;;;;2.73;2.23;;;15.80;99.90;;;;;;5050392;28;20455;-67
2021/07/05 04:02:53;;;;;;;1.77;1.67;;;15.80;99.90;;;;;;5039449;28;20838;-67
2021/07/05 04:05:20;;;;;;;2.60;1.77;;;15.80;99.90;;;;;;5040081;28;20830;-68
2021/07/05 04:07:47;;;;;;;1.97;1.70;;;15.80;99.90;;;;;;5039192;28;21160;-68
2021/07/05 04:10:15;;;;;;;2.23;1.80;;;15.80;99.90;;;;;;5033448;28;21109;-68
2021/07/05 04:12:43;;;;;;;2.10;1.90;;;15.80;99.90;;;;;;5039497;28;20970;-69
2021/07/05 04:15:12;;;;;;;1.83;1.73;;;15.80;99.90;;;;;;5040575;28;20455;-68
2021/07/05 04:17:39;;;;;;;2.10;1.90;;;15.80;99.90;;;;;;5040019;28;20460;-68
2021/07/05 04:20:10;;;;;;;4.60;1.80;;;15.80;99.90;;;;;;5038477;28;20459;-68
2021/07/05 04:22:37;;;;;;;1.50;1.33;;;15.70;99.90;;;;;;5039506;28;20685;-67
2021/07/05 04:25:06;;;;;;;1.90;1.73;;;15.80;99.90;;;;;;5041316;28;20480;-67
2021/07/05 04:27:32;;;;;;;2.13;1.93;;;15.80;99.90;;;;;;5048313;28;20459;-68
2021/07/05 04:29:59;;;;;;;2.13;1.93;;;15.80;99.90;;;;;;5032131;28;20967;-67
2021/07/05 04:32:27;;;;;;;2.23;1.70;;;15.90;99.90;;;;;;5029245;28;20461;-67
2021/07/05 04:34:54;;;;;;;3.13;2.17;;;15.90;99.90;;;;;;5028241;28;20487;-67
2021/07/05 04:37:21;;;;;;;1.67;1.57;;;15.90;99.90;;;;;;5029293;28;21033;-67
2021/07/05 04:39:48;;;;;;;2.13;1.40;;;15.90;99.90;;;;;;5030284;28;20801;-68
2021/07/05 04:42:15;;;;;;;2.77;1.60;;;15.90;99.90;;;;;;5030542;28;20468;-68
2021/07/05 04:44:41;;;;;;;2.77;2.00;;;15.80;99.90;;;;;;5030225;28;20491;-68
2021/07/05 04:47:10;;;;;;;2.70;1.90;;;15.80;99.90;;;;;;5030354;28;20472;-67
2021/07/05 04:49:39;;;;;;;2.20;1.80;;;15.90;99.90;;;;;;5030049;28;21002;-67
2021/07/05 04:52:05;;;;;;;3.47;2.00;;;15.90;99.90;;;;;;5030160;28;20495;-67
2021/07/05 04:54:32;;;;;;;2.00;1.70;;;15.90;99.90;;;;;;5030173;28;20485;-68
2021/07/05 04:56:59;;;;;;;1.97;1.53;;;15.90;99.90;;;;;;5029048;28;20465;-67
2021/07/05 04:59:26;;;;;;;2.47;1.70;;;16.00;99.90;;;;;;5030131;28;20463;-68
2021/07/05 05:01:53;;;;;;;5.20;1.80;;;16.00;99.90;;;;;;5029868;28;20460;-67
2021/07/05 05:04:20;;;;;;;1.87;1.47;;;16.10;99.90;;;;;;5030347;28;20485;-67
2021/07/05 05:06:48;;;;;;;2.23;1.70;;;16.10;99.90;;;;;;5030072;28;20488;-67
2021/07/05 05:09:15;;;;;;;2.17;1.70;;;16.10;99.90;;;;;;5029650;28;20483;-67
2021/07/05 05:11:42;;;;;;;2.07;1.80;;;16.10;99.90;;;;;;5030922;28;20456;-67
2021/07/05 05:14:09;;;;;;;2.30;1.60;;;16.20;99.90;;;;;;5031076;28;20488;-67
2021/07/05 05:16:35;;;;;;;1.87;1.73;;;16.20;99.90;;;;;;5031632;28;20495;-67
2021/07/05 05:19:02;;;;;;;2.03;1.80;;;16.20;99.90;;;;;;5030799;28;20951;-67
2021/07/05 05:21:29;;;;;;;6.07;1.80;;;16.20;99.90;;;;;;5030789;28;20847;-67
2021/07/05 05:23:57;;;;;;;1.60;1.50;;;16.20;99.90;;;;;;5030942;28;20571;-67
2021/07/05 05:26:24;;;;;;;1.70;1.60;;;16.20;99.90;;;;;;5031540;28;20726;-67
2021/07/05 05:28:51;;;;;;;2.20;2.00;;;16.20;99.90;;;;;;5031233;28;20460;-67
2021/07/05 05:31:18;;;;;;;1.93;1.30;;;16.20;99.90;;;;;;5030615;28;20486;-67
2021/07/05 05:33:45;;;;;;;3.00;1.80;;;16.30;99.90;;;;;;5030962;28;20488;-67
2021/07/05 05:36:11;;;;;;;2.00;1.80;;;16.30;99.90;;;;;;5031043;28;20808;-67
2021/07/05 05:38:40;;;;;;;1.77;1.50;;;16.30;99.90;;;;;;5031075;28;20972;-67
2021/07/05 05:41:08;;;;;;;1.70;1.60;;;16.30;99.90;;;;;;5029569;28;20889;-67
2021/07/05 05:43:35;;;;;;;1.87;1.73;;;16.30;99.90;;;;;;5030437;28;20914;-67
2021/07/05 05:46:02;;;;;;;2.80;1.33;;;16.30;99.90;;;;;;5030328;28;20495;-67
2021/07/05 05:48:29;;;;;;;3.53;1.90;;;16.40;99.90;;;;;;5030626;28;20533;-67
2021/07/05 05:50:56;;;;;;;2.53;1.70;;;16.40;99.90;;;;;;5029762;28;20471;-66
2021/07/05 05:53:23;;;;;;;2.20;2.00;;;16.40;99.90;;;;;;5029030;28;20491;-67
2021/07/05 05:55:50;;;;;;;1.93;1.70;;;16.40;99.90;;;;;;5106423;23;20932;-69
2021/07/05 05:58:18;;;;;;;2.47;2.00;;;16.40;99.90;;;;;;5068361;28;20477;-69
2021/07/05 06:00:45;;;;;;;2.97;1.93;;;16.30;99.90;;;;;;5068528;28;21038;-69
2021/07/05 06:03:12;;;;;;;3.20;2.10;;;16.30;99.90;;;;;;5063982;28;20998;-69
2021/07/05 06:05:39;;;;;;;2.30;1.70;;;16.30;99.90;;;;;;5048764;28;20534;-69
2021/07/05 06:08:06;;;;;;;1.90;1.70;;;16.30;99.90;;;;;;5048507;28;20841;-69
2021/07/05 06:10:33;;;;;;;2.13;1.97;;;16.30;99.90;;;;;;5048317;28;20811;-69
2021/07/05 06:12:59;;;;;;;3.57;1.87;;;16.30;99.90;;;;;;5048588;28;20487;-69
2021/07/05 06:15:28;;;;;;;2.77;2.00;;;16.20;99.90;;;;;;5048238;28;20459;-71
2021/07/05 06:17:54;;;;;;;2.40;1.50;;;16.20;99.90;;;;;;5048871;28;20467;-71
2021/07/05 06:20:22;;;;;;;3.53;2.00;;;16.20;99.90;;;;;;5047914;28;20475;-70
2021/07/05 06:22:50;;;;;;;2.00;1.80;;;16.20;99.90;;;;;;5048581;28;20463;-69
2021/07/05 06:25:18;;;;;;;2.13;1.60;;;16.20;99.90;;;;;;5048367;28;20463;-69
2021/07/05 06:27:45;;;;;;;2.73;2.10;;;16.20;99.90;;;;;;5049197;28;20816;-70
2021/07/05 06:30:13;;;;;;;2.43;1.80;;;16.20;99.90;;;;;;5048344;28;20456;-71
2021/07/05 06:32:41;;;;;;;1.90;1.80;;;16.10;99.90;;;;;;5048529;28;20463;-71
2021/07/05 06:35:10;;;;;;;2.30;2.10;;;16.10;99.90;;;;;;5048528;28;20476;-71
2021/07/05 06:37:37;;;;;;;1.80;1.70;;;16.20;99.90;;;;;;5048555;28;20460;-71
2021/07/05 06:40:06;;;;;;;3.00;2.10;;;16.10;99.90;;;;;;5048161;28;20463;-70
2021/07/05 06:42:33;;;;;;;2.70;1.93;;;16.10;99.90;;;;;;5048511;28;20486;-70
2021/07/05 06:45:00;;;;;;;2.73;2.17;;;16.10;99.90;;;;;;5048688;28;20479;-70
2021/07/05 06:47:26;;;;;;;2.10;1.90;;;16.10;99.90;;;;;;5048160;28;20483;-70
2021/07/05 06:49:54;;;;;;;3.50;1.90;;;16.10;99.90;;;;;;5047932;28;20463;-70
2021/07/05 06:52:21;;;;;;;2.67;1.70;;;16.20;99.90;;;;;;5048527;28;20854;-70
2021/07/05 06:54:48;;;;;;;2.80;2.00;;;16.20;99.90;;;;;;5045984;28;20489;-70
2021/07/05 07:00:11;;;;;;;4.33;2.70;;;16.20;99.90;;;;;;5085299;27;20535;-69
2021/07/05 07:02:38;;;;;;;2.20;1.80;;;16.20;99.90;;;;;;5099614;28;20928;-70
2021/07/05 07:05:07;;;;;;;4.30;1.90;;;16.20;99.90;;;;;;5072739;28;21270;-69
2021/07/05 07:07:34;;;;;;;2.20;1.97;;;16.20;99.90;;;;;;5064090;28;20466;-69
2021/07/05 07:10:01;;;;;;;1.93;1.80;;;16.20;99.90;;;;;;5063741;28;20797;-69
2021/07/05 07:12:28;;;;;;;2.93;2.10;;;16.30;99.90;;;;;;5061825;28;20469;-69
2021/07/05 07:14:54;;;;;;;2.07;1.87;;;16.30;99.90;;;;;;5062089;28;20511;-69
2021/07/05 07:17:27;;;;;;;7.60;2.43;;;16.30;99.90;;;;;;5063550;28;20490;-69
2021/07/05 07:19:54;;;;;;;2.00;1.80;;;16.30;99.90;;;;;;5062816;28;20522;-69
2021/07/05 07:22:21;;;;;;;4.33;2.03;;;16.30;99.90;;;;;;5063978;28;20466;-69
2021/07/05 07:24:49;;;;;;;4.30;2.23;;;16.30;99.90;;;;;;5062363;28;20483;-69
2021/07/05 07:27:16;;;;;;;2.90;2.30;;;16.30;99.90;;;;;;5061570;28;20884;-69
2021/07/05 07:29:43;;;;;;;1.70;1.60;;;16.40;99.90;;;;;;5063929;28;20455;-69
2021/07/05 07:32:10;;;;;;;2.60;1.73;;;16.50;99.90;;;;;;5063540;28;20866;-69
2021/07/05 07:34:39;;;;;;;1.70;1.47;;;16.50;99.90;;;;;;5063858;28;20489;-70
2021/07/05 07:37:07;;;;;;;2.10;1.90;;;16.50;99.90;;;;;;5053865;28;20486;-69
2021/07/05 07:39:37;;;;;;;3.77;1.83;;;16.60;99.90;;;;;;5057685;28;20557;-69
2021/07/05 07:42:04;;;;;;;2.13;1.70;;;16.60;99.90;;;;;;5062762;28;20543;-70
2021/07/05 07:44:33;;;;;;;1.90;1.80;;;16.60;99.90;;;;;;5062675;28;21019;-70
2021/07/05 07:47:00;;;;;;;3.23;1.70;;;16.70;99.90;;;;;;5060867;28;20459;-70
2021/07/05 07:49:29;;;;;;;2.70;2.13;;;16.70;99.90;;;;;;5062414;28;20860;-70
2021/07/05 07:51:58;;;;;;;2.63;1.80;;;16.70;99.90;;;;;;5063447;28;20897;-70
2021/07/05 07:54:26;;;;;;;2.17;1.80;;;16.80;99.90;;;;;;5062453;28;20474;-69
2021/07/05 07:56:53;;;;;;;2.10;1.90;;;16.80;99.90;;;;;;5062755;28;20463;-70
2021/07/05 07:59:21;;;;;;;4.33;2.47;;;16.80;99.90;;;;;;5062039;28;20490;-68
2021/07/05 08:01:49;;;;;;;1.67;1.57;;;16.80;99.90;;;;;;5062587;28;20561;-68
2021/07/05 08:04:16;;;;;;;5.47;1.83;;;16.70;99.90;;;;;;5062113;28;20521;-68
2021/07/05 08:06:43;;;;;;;2.90;2.00;;;16.70;99.90;;;;;;5062309;28;20454;-68
2021/07/05 08:09:12;;;;;;;2.80;1.90;;;16.70;99.90;;;;;;5062652;28;20623;-68
2021/07/05 08:11:40;;;;;;;1.90;1.70;;;16.70;99.90;;;;;;5048910;28;20546;-68
2021/07/05 08:14:08;;;;;;;2.50;1.80;;;16.70;99.90;;;;;;5049141;28;20475;-68
2021/07/05 08:16:36;;;;;;;3.00;1.53;;;16.70;99.90;;;;;;5049451;28;20509;-69
2021/07/05 08:19:04;;;;;;;2.50;1.57;;;16.60;99.90;;;;;;5048543;28;20509;-69
2021/07/05 08:21:32;;;;;;;2.10;1.77;;;16.70;99.90;;;;;;5049943;28;20463;-70
2021/07/05 08:23:59;;;;;;;2.50;1.60;;;16.70;99.90;;;;;;5049349;28;21013;-70
2021/07/05 08:26:27;;;;;;;2.07;1.77;;;16.70;99.90;;;;;;5048584;28;20475;-70
2021/07/05 08:28:54;;;;;;;2.00;1.80;;;16.80;99.90;;;;;;5048763;28;20460;-68
2021/07/05 08:31:21;;;;;;;1.80;1.70;;;16.80;99.90;;;;;;5048288;28;20467;-70
2021/07/05 08:33:51;;;;;;;3.10;1.50;;;16.80;99.90;;;;;;5048640;28;20483;-69
2021/07/05 08:36:19;;;;;;;3.30;1.70;;;16.80;99.90;;;;;;5048319;28;20840;-69
2021/07/05 08:38:47;;;;;;;2.23;1.73;;;16.80;99.90;;;;;;5048791;28;20495;-69
2021/07/05 08:41:14;;;;;;;2.63;1.60;;;16.80;99.90;;;;;;5047423;28;20538;-69
2021/07/05 08:43:47;;;;;;;3.63;1.90;;;16.80;99.90;;;;;;5048321;28;21014;-69
2021/07/05 08:46:16;;;;;;;2.30;1.80;;;16.80;99.90;;;;;;5048205;28;20455;-69
2021/07/05 08:48:44;;;;;;;4.33;2.10;;;16.90;99.90;;;;;;5048663;28;20562;-69
2021/07/05 08:51:13;;;;;;;4.17;2.30;;;16.90;99.90;;;;;;5048649;28;20466;-69
2021/07/05 08:53:42;;;;;;;3.27;1.87;;;16.90;99.90;;;;;;5048554;28;20893;-69
2021/07/05 08:56:11;;;;;;;1.97;1.80;;;16.90;99.90;;;;;;5048169;28;20491;-68
2021/07/05 08:58:42;;;;;;;1.97;1.87;;;17.00;99.90;;;;;;5048274;28;20494;-69
2021/07/05 09:01:11;;;;;;;2.53;2.07;;;17.00;99.90;;;;;;5048508;28;20460;-69
2021/07/05 09:03:39;;;;;;;2.30;2.10;;;17.10;99.90;;;;;;5047813;28;20487;-69
2021/07/05 09:06:12;;;;;;;2.40;2.13;;;17.10;99.90;;;;;;5047963;28;20469;-70
2021/07/05 09:08:41;;;;;;;1.70;1.60;;;17.10;99.90;;;;;;5048686;28;20491;-68
2021/07/05 09:11:10;;;;;;;2.83;2.00;;;17.20;99.90;;;;;;5047393;28;20966;-68
2021/07/05 09:13:50;;;;;;;2.13;1.70;;;17.20;99.90;;;;;;5048450;28;20525;-69
2021/07/05 09:16:38;;;;;;;2.70;1.90;;;17.30;99.90;;;;;;5048018;28;20877;-68
2021/07/05 09:19:15;;;;;;;2.20;2.00;;;17.30;99.90;;;;;;5047640;28;20506;-68
2021/07/05 09:21:48;;;;;;;2.10;1.90;;;17.30;99.90;;;;;;5046856;28;20459;-69
2021/07/05 09:24:25;;;;;;;2.07;1.80;;;17.30;99.90;;;;;;5048383;28;20533;-69
2021/07/05 09:27:02;;;;;;;2.23;1.40;;;17.30;99.90;;;;;;5048085;28;20490;-70
2021/07/05 09:29:31;;;;;;;1.53;1.43;;;17.30;99.90;;;;;;5048199;28;20463;-69
2021/07/05 09:32:01;;;;;;;1.40;1.13;;;17.20;99.90;;;;;;5049172;28;20474;-69
2021/07/05 09:34:32;;;;;;;1.23;1.13;;;17.10;99.90;;;;;;5048307;28;20483;-69
2021/07/05 09:37:19;;;;;;;1.33;1.20;;;17.10;99.90;;;;;;5049152;28;20966;-70
2021/07/05 09:40:10;;;;;;;1.63;1.40;;;17.10;99.90;;;;;;5047701;28;20783;-70
2021/07/05 09:42:40;;;;;;;2.47;1.57;;;17.10;99.90;;;;;;5048389;28;20459;-69
2021/07/05 09:45:09;;;;;;;2.13;1.27;;;17.10;99.90;;;;;;5048199;28;20463;-68
2021/07/05 09:47:37;;;;;;;1.60;1.50;;;17.10;99.90;;;;;;5048241;28;20463;-69
2021/07/05 09:50:10;;;;;;;1.53;1.43;;;17.10;99.90;;;;;;5048143;28;20459;-69
2021/07/05 09:52:37;;;;;;;1.57;1.47;;;17.10;99.90;;;;;;5048307;28;20843;-68
2021/07/05 09:55:09;;;;;;;1.53;1.40;;;17.10;99.90;;;;;;5048108;28;20483;-69
2021/07/05 09:57:46;;;;;;;1.83;1.57;;;17.10;99.90;;;;;;5048617;28;20468;-69
2021/07/05 10:00:17;;;;;;;1.90;1.37;;;17.20;99.90;;;;;;5047628;28;20486;-69
2021/07/05 10:03:04;;;;;;;2.00;1.30;;;17.10;99.90;;;;;;5057134;28;20532;-68
2021/07/05 10:05:33;;;;;;;1.60;0.97;;;17.10;99.90;;;;;;5067546;28;20454;-69
2021/07/05 10:08:03;;;;;;;1.20;1.10;;;17.00;99.90;;;;;;5067444;28;20451;-68
2021/07/05 10:10:30;;;;;;;3.13;1.47;;;17.00;99.90;;;;;;5067076;28;20791;-69
2021/07/05 10:12:58;;;;;;;1.47;1.33;;;17.10;99.90;;;;;;5067631;28;20461;-69
2021/07/05 10:15:26;;;;;;;1.53;1.20;;;17.10;99.90;;;;;;5067093;28;20476;-70
2021/07/05 10:17:54;;;;;;;1.40;1.20;;;17.10;99.90;;;;;;5067579;28;20566;-68
2021/07/05 10:20:24;;;;;;;2.23;1.40;;;17.10;99.90;;;;;;5066504;28;20569;-70
2021/07/05 10:22:54;;;;;;;1.43;1.10;;;17.10;99.90;;;;;;5067696;28;20809;-69
2021/07/05 10:25:22;;;;;;;1.70;1.33;;;17.10;99.90;;;;;;5067302;28;20458;-69
2021/07/05 10:27:49;;;;;;;2.23;1.23;;;17.10;99.90;;;;;;5067562;28;21041;-69
2021/07/05 10:30:17;;;;;;;1.93;1.30;;;17.20;99.90;;;;;;5067167;28;20451;-69
2021/07/05 10:32:45;;;;;;;2.13;1.30;;;17.20;99.90;;;;;;5066603;28;21044;-68
2021/07/05 10:35:15;;;;;;;4.13;1.43;;;17.20;99.90;;;;;;5067140;28;20875;-68
2021/07/05 10:37:49;;;;;;;1.30;1.20;;;17.20;99.90;;;;;;5067700;28;20483;-69
2021/07/05 10:40:17;;;;;;;2.03;1.40;;;17.20;99.90;;;;;;5066513;28;20496;-68
2021/07/05 10:42:53;;;;;;;1.80;1.60;;;17.30;99.90;;;;;;5067277;28;20979;-68
2021/07/05 10:45:24;;;;;;;2.83;1.40;;;17.30;99.90;;;;;;5067008;28;20466;-69
2021/07/05 10:47:53;;;;;;;2.90;1.47;;;17.30;99.90;;;;;;5067606;28;20462;-69
2021/07/05 10:50:53;;;;;;;1.77;1.40;;;17.30;99.90;;;;;;5066048;28;20771;-69
2021/07/05 10:53:53;;;;;;;2.03;1.43;;;17.30;99.90;;;;;;5066887;28;20486;-68
2021/07/05 10:56:32;;;;;;;2.03;1.40;;;17.40;99.90;;;;;;5066461;28;20498;-68
2021/07/05 10:59:39;;;;;;;1.33;1.10;;;17.40;99.90;;;;;;5067189;28;20470;-68
2021/07/05 11:02:36;;;;;;;1.60;1.20;;;17.40;99.90;;;;;;5066568;28;20463;-68
2021/07/05 11:05:04;;;;;;;2.40;1.37;;;17.40;99.90;;;;;;5066947;28;20483;-68
2021/07/05 11:07:45;;;;;;;1.10;1.00;;;17.50;99.90;;;;;;5067025;28;20469;-69
2021/07/05 11:10:19;;;;;;;1.10;1.00;;;17.50;99.90;;;;;;5065991;28;20979;-68
2021/07/05 11:12:58;;;;;;;1.30;1.10;;;17.60;99.90;;;;;;5067042;28;20501;-69
2021/07/05 11:15:49;;;;;;;1.10;1.00;;;17.60;99.90;;;;;;5066474;28;20520;-68
2021/07/05 11:19:07;;;;;;;1.40;1.30;;;17.60;99.90;;;;;;5067344;28;20457;-68
2021/07/05 11:21:54;;;;;;;1.43;1.33;;;17.70;99.90;;;;;;5066868;28;20457;-68
2021/07/05 11:24:21;;;;;;;1.67;1.33;;;17.80;99.90;;;;;;5066576;28;20505;-68
2021/07/05 11:26:50;;;;;;;1.70;1.43;;;17.90;99.90;;;;;;5066510;28;20531;-69
2021/07/05 11:29:25;;;;;;;1.73;1.30;;;18.00;99.90;;;;;;5066050;28;20459;-69
2021/07/05 11:31:55;;;;;;;1.63;1.53;;;18.10;99.90;;;;;;5066546;28;20892;-68
2021/07/05 11:34:28;;;;;;;1.50;1.40;;;18.10;99.90;;;;;;5066103;28;20474;-68
2021/07/05 11:37:29;;;;;;;1.40;1.30;;;18.10;99.90;;;;;;5066535;28;20561;-69
2021/07/05 11:39:55;;;;;;;2.10;1.40;;;18.10;99.90;;;;;;5061946;28;20498;-68
2021/07/05 11:42:58;;;;;;;1.30;1.20;;;18.10;99.90;;;;;;5066495;28;20756;-68
2021/07/05 11:45:39;;;;;;;1.30;1.20;;;18.20;99.90;;;;;;5066953;28;20980;-68
2021/07/05 11:48:06;;;;;;;1.60;1.50;;;18.20;99.90;;;;;;5069874;28;20527;-68
2021/07/05 11:50:38;;;;;;;2.00;1.50;;;18.30;99.90;;;;;;5069528;28;20459;-68
2021/07/05 11:53:05;;;;;;;1.53;1.40;;;18.30;99.90;;;;;;5069613;28;20505;-68
2021/07/05 11:55:34;;;;;;;1.60;1.50;;;18.40;99.90;;;;;;5069960;28;20588;-69
2021/07/05 11:58:05;;;;;;;1.90;1.80;;;18.40;99.90;;;;;;5069852;28;20719;-69
2021/07/05 12:00:35;;;;;;;3.53;1.80;;;18.40;99.90;;;;;;5069523;28;20539;-68
2021/07/05 12:03:03;;;;;;;1.60;1.50;;;18.40;99.90;;;;;;5069304;28;20482;-68
2021/07/05 12:05:30;;;;;;;1.87;1.30;;;18.40;99.90;;;;;;5069881;28;20469;-68
2021/07/05 12:08:07;;;;;;;2.30;2.10;;;18.40;99.90;;;;;;5069812;28;20466;-69
2021/07/05 12:10:36;;;;;;;1.93;1.73;;;18.50;99.90;;;;;;5043597;28;20542;-69
2021/07/05 12:13:17;;;;;;;1.47;1.37;;;18.40;99.90;;;;;;5049536;28;20479;-69
2021/07/05 12:15:46;;;;;;;3.43;2.93;;;18.40;99.90;;;;;;5047660;28;20617;-68
2021/07/05 12:18:15;;;;;;;15.03;13.00;;;18.40;99.90;;;;;;5049415;28;20486;-69
2021/07/05 12:20:43;;;;;;;16.63;13.73;;;18.40;99.90;;;;;;5048205;28;20506;-68
2021/07/05 12:23:11;;;;;;;4.63;3.50;;;18.40;99.90;;;;;;5047790;28;20486;-69
2021/07/05 12:25:39;;;;;;;1.80;1.70;;;18.50;99.90;;;;;;5047336;28;20857;-69
2021/07/05 12:28:10;;;;;;;2.50;1.90;;;18.60;99.90;;;;;;5047501;28;20470;-68
2021/07/05 12:30:39;;;;;;;2.13;1.93;;;18.70;99.90;;;;;;5048115;28;20967;-68
2021/07/05 12:33:07;;;;;;;2.60;2.07;;;18.70;99.90;;;;;;5047917;28;20479;-68
2021/07/05 12:35:36;;;;;;;1.93;1.70;;;18.80;99.90;;;;;;5048758;28;20513;-68
2021/07/05 12:38:10;;;;;;;2.47;2.17;;;19.00;99.90;;;;;;5048371;28;20464;-69
2021/07/05 12:40:37;;;;;;;1.73;1.60;;;19.10;99.90;;;;;;5048339;28;20483;-69
2021/07/05 12:43:06;;;;;;;1.97;1.87;;;19.30;99.90;;;;;;5049154;28;20479;-68
2021/07/05 12:45:35;;;;;;;1.90;1.70;;;19.30;99.90;;;;;;5049920;28;20468;-68
2021/07/05 12:48:13;;;;;;;2.10;1.83;;;19.30;99.90;;;;;;5046892;28;20478;-68
2021/07/05 12:50:43;;;;;;;3.00;1.63;;;19.40;99.90;;;;;;5048452;28;20456;-68
2021/07/05 12:53:18;;;;;;;2.07;1.83;;;19.50;99.90;;;;;;5045525;28;20531;-68
2021/07/05 12:56:01;;;;;;;1.57;1.47;;;19.80;99.90;;;;;;5046878;28;20459;-68
2021/07/05 12:58:39;;;;;;;3.97;1.57;;;19.90;99.90;;;;;;5048585;28;20467;-68
2021/07/05 13:01:07;;;;;;;1.80;1.20;;;20.00;99.90;;;;;;5048302;28;20509;-68